Time;durP1;ratioP1;P1;durP2;ratioP2;P2;SDS_P1;SDS_P2;PMS_P1;PMS_P2;Temp;Humidity;BMP_temperature;BMP_pressure;BME280_temperature;BME280_humidity;BME280_pressure;Samples;Min_cycle;Max_cycle;Signal;HPM_P1;HPM_P2
2021/10/10 00:02:03;;;;;;;9.03;8.10;;;;;;;;;;5006365;28;20448;-75
2021/10/10 00:04:28;;;;;;;9.10;7.33;;;;;;;;;;5008339;28;20185;-74
2021/10/10 00:06:53;;;;;;;11.10;8.47;;;;;;;;;;5003187;28;20185;-74
2021/10/10 00:09:18;;;;;;;14.33;8.53;;;;;;;;;;4999961;28;20205;-74
2021/10/10 00:11:44;;;;;;;9.87;8.13;;;;;;;;;;5008537;28;20193;-74
2021/10/10 00:14:09;;;;;;;10.17;7.67;;;;;;;;;;5008175;28;20220;-74
2021/10/10 00:16:34;;;;;;;9.60;8.10;;;;;;;;;;5009737;28;20593;-74
2021/10/10 00:18:59;;;;;;;9.17;8.20;;;;;;;;;;5009603;28;20189;-74
2021/10/10 00:21:25;;;;;;;8.40;7.30;;;;;;;;;;5010033;28;20601;-75
2021/10/10 00:23:50;;;;;;;11.90;8.97;;;;;;;;;;5009322;28;20216;-75
2021/10/10 00:26:15;;;;;;;10.67;8.60;;;;;;;;;;5008520;28;20279;-75
2021/10/10 00:28:40;;;;;;;8.67;7.70;;;;;;;;;;5005221;28;20220;-75
2021/10/10 00:31:06;;;;;;;12.47;8.63;;;;;;;;;;5008052;28;20177;-75
2021/10/10 00:33:31;;;;;;;9.17;8.13;;;;;;;;;;5008821;28;20235;-75
2021/10/10 00:35:56;;;;;;;10.37;8.60;;;;;;;;;;5009796;28;20181;-75
2021/10/10 00:38:21;;;;;;;8.97;7.10;;;;;;;;;;5007785;28;20185;-75
2021/10/10 00:40:47;;;;;;;8.47;7.60;;;;;;;;;;5008439;28;20188;-74
2021/10/10 00:43:12;;;;;;;9.30;7.70;;;;;;;;;;5008842;28;20193;-75
2021/10/10 00:45:37;;;;;;;11.10;8.40;;;;;;;;;;5008956;28;20185;-74
2021/10/10 00:48:03;;;;;;;9.70;8.30;;;;;;;;;;5009773;28;20223;-74
2021/10/10 00:50:29;;;;;;;10.90;8.27;;;;;;;;;;5009135;28;20200;-75
2021/10/10 00:52:54;;;;;;;14.30;8.77;;;;;;;;;;5007950;28;20201;-74
2021/10/10 00:55:20;;;;;;;14.80;6.80;;;;;;;;;;5008193;28;20436;-74
2021/10/10 00:57:47;;;;;;;9.80;8.77;;;;;;;;;;5006210;28;20189;-75
2021/10/10 01:00:13;;;;;;;8.77;7.83;;;;;;;;;;5006004;28;20836;-74
2021/10/10 01:02:39;;;;;;;9.57;7.90;;;;;;;;;;5006373;28;20456;-74
2021/10/10 01:05:05;;;;;;;11.67;8.47;;;;;;;;;;5008036;28;20184;-75
2021/10/10 01:07:30;;;;;;;13.20;8.33;;;;;;;;;;5006809;28;20439;-75
2021/10/10 01:09:56;;;;;;;9.60;8.30;;;;;;;;;;5008027;28;20197;-75
2021/10/10 01:12:21;;;;;;;7.87;7.10;;;;;;;;;;5006450;28;20280;-75
2021/10/10 01:14:47;;;;;;;8.53;7.63;;;;;;;;;;5010905;28;20522;-74
2021/10/10 01:17:12;;;;;;;9.30;7.60;;;;;;;;;;5008352;28;20181;-73
2021/10/10 01:19:38;;;;;;;11.40;7.97;;;;;;;;;;5010066;28;20649;-74
2021/10/10 01:22:04;;;;;;;10.30;7.70;;;;;;;;;;5009546;28;20257;-75
2021/10/10 01:24:29;;;;;;;10.87;8.07;;;;;;;;;;5006242;28;20447;-74
2021/10/10 01:26:54;;;;;;;10.00;7.30;;;;;;;;;;5008889;28;20181;-74
2021/10/10 01:29:20;;;;;;;11.60;8.80;;;;;;;;;;5008232;28;20885;-75
2021/10/10 01:31:45;;;;;;;9.67;8.00;;;;;;;;;;5009541;28;20212;-75
2021/10/10 01:34:11;;;;;;;9.87;7.60;;;;;;;;;;5008328;28;20752;-75
2021/10/10 01:36:36;;;;;;;8.53;7.43;;;;;;;;;;5010043;28;20259;-75
2021/10/10 01:39:03;;;;;;;10.43;8.10;;;;;;;;;;5008380;28;20193;-75
2021/10/10 01:41:28;;;;;;;10.50;8.17;;;;;;;;;;5006035;28;21322;-75
2021/10/10 01:43:53;;;;;;;8.73;7.70;;;;;;;;;;5007492;28;20560;-75
2021/10/10 01:46:18;;;;;;;9.03;7.80;;;;;;;;;;5005319;28;20227;-76
2021/10/10 01:48:44;;;;;;;9.77;8.23;;;;;;;;;;5006472;28;20209;-75
2021/10/10 01:51:12;;;;;;;10.60;7.93;;;;;;;;;;5009830;28;20185;-75
2021/10/10 01:53:37;;;;;;;11.63;8.20;;;;;;;;;;5007739;28;20207;-75
2021/10/10 01:56:02;;;;;;;8.30;7.40;;;;;;;;;;5007163;28;20514;-75
2021/10/10 01:58:28;;;;;;;12.23;7.47;;;;;;;;;;5006718;28;20197;-75
2021/10/10 02:00:53;;;;;;;9.83;8.83;;;;;;;;;;5006352;28;20181;-75
2021/10/10 02:03:18;;;;;;;13.33;8.70;;;;;;;;;;5008455;28;20199;-75
2021/10/10 02:05:43;;;;;;;8.57;7.60;;;;;;;;;;5007379;28;20173;-75
2021/10/10 02:08:09;;;;;;;12.03;8.23;;;;;;;;;;5005058;28;20197;-74
2021/10/10 02:10:34;;;;;;;10.83;9.70;;;;;;;;;;5006703;28;21057;-75
2021/10/10 02:12:59;;;;;;;10.50;8.07;;;;;;;;;;5007746;28;20201;-75
2021/10/10 02:15:25;;;;;;;9.73;8.47;;;;;;;;;;5008729;28;20176;-75
2021/10/10 02:17:50;;;;;;;9.30;8.10;;;;;;;;;;5009790;28;22964;-75
2021/10/10 02:20:15;;;;;;;10.90;8.37;;;;;;;;;;5008390;28;20841;-75
2021/10/10 02:22:40;;;;;;;10.20;8.27;;;;;;;;;;5008219;28;20216;-75
2021/10/10 02:25:08;;;;;;;11.43;8.60;;;;;;;;;;5006175;28;20195;-75
2021/10/10 02:27:33;;;;;;;9.77;8.23;;;;;;;;;;5007606;28;20189;-76
2021/10/10 02:29:59;;;;;;;14.23;9.37;;;;;;;;;;5007515;28;20535;-75
2021/10/10 02:32:25;;;;;;;10.83;9.17;;;;;;;;;;5006111;28;20199;-75
2021/10/10 02:34:50;;;;;;;12.10;8.60;;;;;;;;;;5007680;28;20820;-75
2021/10/10 02:37:15;;;;;;;10.73;8.80;;;;;;;;;;5007101;28;20287;-75
2021/10/10 02:39:40;;;;;;;12.33;8.20;;;;;;;;;;5006886;28;20204;-75
2021/10/10 02:42:06;;;;;;;9.50;7.90;;;;;;;;;;5007090;28;20236;-78
2021/10/10 02:44:31;;;;;;;11.17;7.77;;;;;;;;;;5006004;28;20193;-76
2021/10/10 02:46:57;;;;;;;10.83;9.40;;;;;;;;;;5006115;28;20709;-75
2021/10/10 02:49:22;;;;;;;9.07;7.60;;;;;;;;;;5007141;28;20209;-76
2021/10/10 02:51:48;;;;;;;9.47;8.00;;;;;;;;;;5008006;28;20490;-76
2021/10/10 02:54:13;;;;;;;9.33;7.20;;;;;;;;;;5006026;28;20201;-75
2021/10/10 02:56:39;;;;;;;10.00;8.10;;;;;;;;;;5008611;28;20181;-75
2021/10/10 02:59:04;;;;;;;10.20;7.70;;;;;;;;;;5006583;28;20189;-75
2021/10/10 03:01:29;;;;;;;9.70;7.30;;;;;;;;;;5006663;28;20186;-75
2021/10/10 03:03:54;;;;;;;8.00;7.20;;;;;;;;;;5009342;28;20224;-76
2021/10/10 03:06:20;;;;;;;12.00;8.60;;;;;;;;;;5008981;28;21710;-75
2021/10/10 03:08:45;;;;;;;9.27;7.37;;;;;;;;;;5006731;28;20237;-76
2021/10/10 03:11:10;;;;;;;13.93;8.70;;;;;;;;;;5004271;28;20239;-74
2021/10/10 03:13:35;;;;;;;8.87;7.83;;;;;;;;;;5005031;28;21227;-75
2021/10/10 03:16:00;;;;;;;9.70;8.00;;;;;;;;;;5005719;28;20539;-75
2021/10/10 03:18:26;;;;;;;10.00;8.30;;;;;;;;;;5007403;28;20220;-74
2021/10/10 03:20:51;;;;;;;9.20;8.10;;;;;;;;;;5004314;28;20270;-75
2021/10/10 03:23:16;;;;;;;8.77;7.40;;;;;;;;;;5005388;28;20301;-75
2021/10/10 03:25:42;;;;;;;9.50;7.30;;;;;;;;;;5008722;28;20173;-75
2021/10/10 03:28:07;;;;;;;11.00;7.50;;;;;;;;;;5004823;28;20204;-74
2021/10/10 03:30:32;;;;;;;8.87;7.30;;;;;;;;;;5007599;28;20262;-74
2021/10/10 03:32:57;;;;;;;8.90;7.10;;;;;;;;;;5005583;28;20204;-75
2021/10/10 03:35:23;;;;;;;12.00;9.33;;;;;;;;;;5007845;28;20194;-74
2021/10/10 03:37:48;;;;;;;11.80;8.23;;;;;;;;;;5007291;28;20177;-75
2021/10/10 03:40:13;;;;;;;12.10;7.73;;;;;;;;;;5004729;28;20182;-75
2021/10/10 03:42:39;;;;;;;10.00;7.83;;;;;;;;;;5004612;28;20263;-75
2021/10/10 03:45:05;;;;;;;10.60;7.77;;;;;;;;;;4999996;28;20192;-75
2021/10/10 03:47:30;;;;;;;10.73;8.93;;;;;;;;;;5005854;28;20200;-75
2021/10/10 03:49:55;;;;;;;12.23;8.57;;;;;;;;;;5005800;28;20498;-75
2021/10/10 03:52:21;;;;;;;12.90;8.20;;;;;;;;;;5004023;28;20835;-76
2021/10/10 03:57:23;;;;;;;10.10;8.40;;;;;;;;;;5010300;28;20184;-75
2021/10/10 03:59:52;;;;;;;9.83;7.83;;;;;;;;;;5008653;28;20431;-75
2021/10/10 04:02:18;;;;;;;9.87;8.20;;;;;;;;;;5010840;28;20455;-75
2021/10/10 04:04:46;;;;;;;9.87;7.43;;;;;;;;;;5010555;28;20436;-75
2021/10/10 04:07:11;;;;;;;9.10;7.80;;;;;;;;;;5009508;28;20208;-75
2021/10/10 04:09:36;;;;;;;11.23;8.10;;;;;;;;;;5010287;28;20475;-75
2021/10/10 04:12:02;;;;;;;9.87;7.80;;;;;;;;;;5008758;28;20181;-74
2021/10/10 04:14:27;;;;;;;11.77;9.13;;;;;;;;;;5011221;28;20181;-75
2021/10/10 04:16:52;;;;;;;9.87;7.90;;;;;;;;;;5011738;28;20181;-75
2021/10/10 04:19:17;;;;;;;9.07;8.10;;;;;;;;;;5008821;28;20173;-74
2021/10/10 04:21:43;;;;;;;8.90;8.00;;;;;;;;;;5010360;28;20185;-75
2021/10/10 04:24:08;;;;;;;9.43;7.67;;;;;;;;;;5009731;28;20216;-75
2021/10/10 04:26:33;;;;;;;10.50;8.07;;;;;;;;;;5011037;28;20235;-74
2021/10/10 04:28:58;;;;;;;8.20;7.07;;;;;;;;;;5008854;28;20209;-75
2021/10/10 04:31:23;;;;;;;9.37;7.93;;;;;;;;;;5011237;28;20185;-74
2021/10/10 04:33:49;;;;;;;8.90;7.37;;;;;;;;;;5009531;28;20696;-75
2021/10/10 04:36:14;;;;;;;11.80;7.97;;;;;;;;;;5009467;28;20535;-75
2021/10/10 04:38:39;;;;;;;10.97;7.33;;;;;;;;;;5011825;28;20209;-75
2021/10/10 04:41:05;;;;;;;9.30;7.80;;;;;;;;;;5010861;28;20181;-75
2021/10/10 04:43:30;;;;;;;8.63;7.70;;;;;;;;;;5011136;28;20208;-75
2021/10/10 04:45:55;;;;;;;8.83;8.00;;;;;;;;;;5011172;28;20189;-76
2021/10/10 04:48:20;;;;;;;8.90;7.57;;;;;;;;;;5008082;28;20193;-75
2021/10/10 04:50:46;;;;;;;8.83;7.90;;;;;;;;;;5011590;28;20216;-75
2021/10/10 04:53:11;;;;;;;10.20;7.50;;;;;;;;;;5011255;28;20489;-75
2021/10/10 04:55:36;;;;;;;8.27;7.47;;;;;;;;;;5011737;28;20696;-75
2021/10/10 04:58:01;;;;;;;9.00;8.10;;;;;;;;;;5011562;28;20189;-75
2021/10/10 05:00:27;;;;;;;9.03;7.80;;;;;;;;;;5011225;28;20292;-75
2021/10/10 05:02:53;;;;;;;9.57;7.57;;;;;;;;;;5011052;28;20208;-75
2021/10/10 05:05:18;;;;;;;10.40;8.50;;;;;;;;;;5010923;28;20181;-75
2021/10/10 05:07:43;;;;;;;8.07;7.07;;;;;;;;;;5010601;28;20424;-75
2021/10/10 05:10:09;;;;;;;9.23;7.87;;;;;;;;;;5009994;28;20213;-74
2021/10/10 05:12:34;;;;;;;10.90;7.53;;;;;;;;;;5009064;28;20287;-74
2021/10/10 05:14:59;;;;;;;9.60;7.30;;;;;;;;;;5009461;28;20558;-76
2021/10/10 05:17:25;;;;;;;8.00;7.20;;;;;;;;;;5010919;28;20200;-76
2021/10/10 05:19:50;;;;;;;9.77;8.20;;;;;;;;;;5010933;28;20192;-76
2021/10/10 05:22:15;;;;;;;11.70;8.87;;;;;;;;;;5009913;28;20212;-75
2021/10/10 05:24:41;;;;;;;12.03;8.10;;;;;;;;;;5009478;28;20177;-75
2021/10/10 05:27:06;;;;;;;13.60;8.70;;;;;;;;;;5007143;28;20189;-75
2021/10/10 05:29:31;;;;;;;12.73;8.53;;;;;;;;;;5010338;28;20216;-75
2021/10/10 05:31:56;;;;;;;10.43;8.00;;;;;;;;;;5010786;28;20188;-75
2021/10/10 05:34:22;;;;;;;8.30;7.20;;;;;;;;;;5007857;28;20625;-75
2021/10/10 05:36:47;;;;;;;9.23;7.20;;;;;;;;;;5009217;28;20185;-75
2021/10/10 05:39:12;;;;;;;10.77;8.63;;;;;;;;;;5009788;28;20185;-74
2021/10/10 05:41:37;;;;;;;11.13;8.77;;;;;;;;;;5008338;28;20189;-75
2021/10/10 05:44:03;;;;;;;15.37;8.97;;;;;;;;;;5007844;28;20673;-75
2021/10/10 05:46:28;;;;;;;9.87;7.73;;;;;;;;;;5006718;28;20255;-76
2021/10/10 05:48:53;;;;;;;10.33;8.93;;;;;;;;;;5009660;28;20205;-75
2021/10/10 05:51:18;;;;;;;8.37;7.00;;;;;;;;;;5006695;28;20174;-75
2021/10/10 05:53:44;;;;;;;8.90;8.00;;;;;;;;;;5010736;28;20225;-74
2021/10/10 05:56:09;;;;;;;11.07;9.17;;;;;;;;;;5007228;28;20177;-74
2021/10/10 05:58:41;;;;;;;9.80;8.10;;;;;;;;;;5006604;28;20296;-74
2021/10/10 06:01:07;;;;;;;15.20;9.23;;;;;;;;;;5008807;28;20208;-75
2021/10/10 06:03:32;;;;;;;11.60;8.90;;;;;;;;;;5004910;28;20495;-74
2021/10/10 06:05:57;;;;;;;7.90;7.10;;;;;;;;;;5009175;28;20181;-74
2021/10/10 06:08:23;;;;;;;10.10;8.20;;;;;;;;;;5009212;28;20264;-74
2021/10/10 06:10:48;;;;;;;10.70;7.83;;;;;;;;;;5007767;28;20276;-74
2021/10/10 06:13:13;;;;;;;9.50;8.30;;;;;;;;;;5010483;28;20224;-74
2021/10/10 06:15:40;;;;;;;11.10;8.20;;;;;;;;;;5009306;28;20638;-74
2021/10/10 06:18:06;;;;;;;10.27;8.90;;;;;;;;;;5010112;28;20901;-74
2021/10/10 06:20:31;;;;;;;11.13;8.20;;;;;;;;;;5006942;28;21067;-73
2021/10/10 06:22:57;;;;;;;9.33;8.30;;;;;;;;;;5009284;28;20571;-74
2021/10/10 06:25:22;;;;;;;8.57;7.67;;;;;;;;;;5009375;28;20208;-74
2021/10/10 06:27:47;;;;;;;9.43;8.10;;;;;;;;;;5008899;28;20184;-74
2021/10/10 06:30:12;;;;;;;10.97;8.13;;;;;;;;;;5008779;28;20550;-73
2021/10/10 06:32:38;;;;;;;12.40;9.00;;;;;;;;;;5006122;28;20281;-74
2021/10/10 06:35:05;;;;;;;11.03;8.20;;;;;;;;;;5008627;28;20181;-74
2021/10/10 06:37:30;;;;;;;10.23;8.17;;;;;;;;;;5010430;28;20420;-74
2021/10/10 06:39:57;;;;;;;10.97;8.53;;;;;;;;;;5009866;28;20924;-74
2021/10/10 06:42:23;;;;;;;11.30;7.57;;;;;;;;;;5009975;28;20201;-75
2021/10/10 06:44:48;;;;;;;10.93;8.80;;;;;;;;;;5007719;28;20440;-75
2021/10/10 06:47:13;;;;;;;20.03;8.47;;;;;;;;;;5009418;28;20255;-74
2021/10/10 06:49:39;;;;;;;10.17;8.60;;;;;;;;;;5008043;28;20193;-74
2021/10/10 06:52:04;;;;;;;9.90;8.50;;;;;;;;;;5009936;28;20254;-74
2021/10/10 06:54:29;;;;;;;10.50;8.57;;;;;;;;;;5009040;28;20545;-74
2021/10/10 06:56:54;;;;;;;11.50;8.03;;;;;;;;;;5009737;28;20180;-74
2021/10/10 06:59:20;;;;;;;8.50;7.60;;;;;;;;;;5006285;28;20295;-75
2021/10/10 07:01:45;;;;;;;10.33;8.27;;;;;;;;;;5003834;28;20189;-76
2021/10/10 07:04:10;;;;;;;10.17;8.57;;;;;;;;;;5006391;28;20299;-75
2021/10/10 07:06:35;;;;;;;11.10;9.00;;;;;;;;;;5009097;28;20212;-74
2021/10/10 07:09:01;;;;;;;12.60;9.20;;;;;;;;;;5007589;28;20240;-74
2021/10/10 07:11:26;;;;;;;11.50;8.87;;;;;;;;;;5003690;28;20181;-75
2021/10/10 07:13:51;;;;;;;9.00;8.10;;;;;;;;;;5002992;28;20799;-75
2021/10/10 07:16:17;;;;;;;10.70;8.43;;;;;;;;;;5007290;28;20184;-75
2021/10/10 07:18:50;;;;;;;10.40;9.30;;;;;;;;;;5006107;28;20735;-74
2021/10/10 07:26:33;;;;;;;10.70;9.13;;;;;;;;;;5007444;28;20439;-74
2021/10/10 07:28:59;;;;;;;10.90;9.80;;;;;;;;;;5007752;28;20478;-74
2021/10/10 07:31:24;;;;;;;12.70;8.13;;;;;;;;;;5011955;28;20173;-74
2021/10/10 07:33:49;;;;;;;13.50;8.00;;;;;;;;;;5007816;28;20219;-74
2021/10/10 07:36:15;;;;;;;11.47;9.53;;;;;;;;;;5009215;28;20191;-74
2021/10/10 07:38:40;;;;;;;9.40;8.43;;;;;;;;;;5010442;28;20185;-74
2021/10/10 07:41:05;;;;;;;10.80;8.00;;;;;;;;;;5014003;28;20181;-73
2021/10/10 07:43:31;;;;;;;12.27;8.43;;;;;;;;;;5009493;28;20228;-74
2021/10/10 07:46:06;;;;;;;10.77;9.37;;;;;;;;;;5011305;28;20193;-74
2021/10/10 07:48:31;;;;;;;11.67;10.47;;;;;;;;;;5000890;28;20445;-75
2021/10/10 07:50:56;;;;;;;11.10;9.33;;;;;;;;;;5004045;28;21083;-75
2021/10/10 07:53:22;;;;;;;11.53;9.30;;;;;;;;;;5008869;28;20564;-75
2021/10/10 07:55:47;;;;;;;14.47;10.13;;;;;;;;;;5006539;28;20204;-75
2021/10/10 07:58:12;;;;;;;12.67;9.53;;;;;;;;;;5006707;28;20180;-75
2021/10/10 08:00:37;;;;;;;10.37;9.10;;;;;;;;;;5005389;28;20189;-75
2021/10/10 08:03:03;;;;;;;10.97;9.77;;;;;;;;;;5005397;28;20296;-75
2021/10/10 08:05:28;;;;;;;12.20;9.70;;;;;;;;;;5010743;28;20177;-75
2021/10/10 08:07:54;;;;;;;10.23;9.23;;;;;;;;;;5009247;28;20181;-75
2021/10/10 08:10:21;;;;;;;12.93;10.50;;;;;;;;;;5006460;28;20456;-74
2021/10/10 08:12:46;;;;;;;11.07;9.87;;;;;;;;;;5010213;28;20240;-74
2021/10/10 08:15:12;;;;;;;12.00;9.97;;;;;;;;;;5002917;28;20942;-74
2021/10/10 08:17:38;;;;;;;13.30;9.97;;;;;;;;;;5008312;28;20195;-75
2021/10/10 08:20:07;;;;;;;11.67;9.43;;;;;;;;;;5010995;28;20200;-74
2021/10/10 08:22:35;;;;;;;13.17;10.60;;;;;;;;;;5003769;28;20248;-74
2021/10/10 08:25:00;;;;;;;12.10;10.20;;;;;;;;;;5011200;28;20432;-76
2021/10/10 08:27:25;;;;;;;12.07;9.97;;;;;;;;;;5010846;28;20446;-74
2021/10/10 08:29:51;;;;;;;12.13;10.50;;;;;;;;;;5009221;28;20209;-74
2021/10/10 08:32:16;;;;;;;12.40;10.53;;;;;;;;;;5010432;28;20197;-75
2021/10/10 08:34:41;;;;;;;13.60;10.10;;;;;;;;;;5007281;28;20177;-74
2021/10/10 08:37:06;;;;;;;12.53;10.50;;;;;;;;;;5010893;28;20530;-75
2021/10/10 08:39:32;;;;;;;13.57;10.93;;;;;;;;;;5010433;28;20185;-74
2021/10/10 08:41:59;;;;;;;13.83;11.33;;;;;;;;;;5009606;28;20185;-75
2021/10/10 08:44:33;;;;;;;12.43;10.73;;;;;;;;;;5010709;28;20177;-75
2021/10/10 08:47:02;;;;;;;13.23;10.80;;;;;;;;;;5009246;28;20423;-74
2021/10/10 08:49:28;;;;;;;12.63;9.83;;;;;;;;;;5009731;28;20452;-74
2021/10/10 08:51:54;;;;;;;12.00;10.70;;;;;;;;;;5009429;28;20443;-75
2021/10/10 08:54:19;;;;;;;12.27;10.90;;;;;;;;;;5009927;28;20420;-76
2021/10/10 08:56:44;;;;;;;16.67;11.30;;;;;;;;;;5009587;28;20196;-74
2021/10/10 08:59:10;;;;;;;15.10;11.87;;;;;;;;;;5007964;28;20180;-75
2021/10/10 09:01:37;;;;;;;13.47;11.27;;;;;;;;;;5009215;28;20268;-76
2021/10/10 09:04:03;;;;;;;12.87;10.57;;;;;;;;;;5006994;28;20459;-76
2021/10/10 09:06:31;;;;;;;14.70;11.30;;;;;;;;;;5007244;28;20443;-72
2021/10/10 09:09:16;;;;;;;15.17;11.80;;;;;;;;;;5010342;28;20235;-75
2021/10/10 09:11:42;;;;;;;17.17;12.00;;;;;;;;;;5010035;28;20444;-77
2021/10/10 09:14:07;;;;;;;12.23;10.43;;;;;;;;;;5011610;28;20474;-75
2021/10/10 09:16:34;;;;;;;14.03;11.17;;;;;;;;;;5009191;28;20178;-76
2021/10/10 09:19:00;;;;;;;14.30;11.50;;;;;;;;;;5010754;28;20185;-77
2021/10/10 09:21:27;;;;;;;14.20;11.40;;;;;;;;;;5009709;28;20428;-75
2021/10/10 09:23:53;;;;;;;12.83;11.17;;;;;;;;;;5007526;28;20225;-75
2021/10/10 09:26:19;;;;;;;14.00;10.73;;;;;;;;;;5009311;28;20550;-74
2021/10/10 09:28:45;;;;;;;13.60;11.37;;;;;;;;;;4999347;28;20960;-74
2021/10/10 09:31:10;;;;;;;12.67;11.10;;;;;;;;;;5005457;28;20181;-74
2021/10/10 09:33:50;;;;;;;12.33;11.03;;;;;;;;;;5003345;28;20459;-72
2021/10/10 09:36:29;;;;;;;16.27;11.70;;;;;;;;;;5010114;28;20219;-72
2021/10/10 09:41:27;;;;;;;16.97;12.20;;;;;;;;;;5006140;28;26203;-72
2021/10/10 09:43:59;;;;;;;13.13;11.07;;;;;;;;;;5005111;28;20537;-72
2021/10/10 09:46:25;;;;;;;16.50;12.60;;;;;;;;;;5009158;28;20428;-72
2021/10/10 09:48:50;;;;;;;17.10;12.20;;;;;;;;;;5006635;28;20479;-71
2021/10/10 09:51:29;;;;;;;14.93;12.57;;;;;;;;;;5008049;28;20483;-72
2021/10/10 09:53:59;;;;;;;15.70;13.27;;;;;;;;;;5004237;28;20255;-71
2021/10/10 09:56:24;;;;;;;20.43;13.73;;;;;;;;;;5009278;28;20473;-72
2021/10/10 09:58:49;;;;;;;15.20;13.00;;;;;;;;;;5008330;28;21592;-72
2021/10/10 10:01:16;;;;;;;17.00;13.70;;;;;;;;;;5009667;28;20276;-72
2021/10/10 10:03:53;;;;;;;14.87;12.17;;;;;;;;;;5009300;28;20258;-73
2021/10/10 10:06:19;;;;;;;16.63;12.53;;;;;;;;;;5005197;28;20432;-72
2021/10/10 10:08:44;;;;;;;19.37;13.00;;;;;;;;;;5004746;28;20467;-73
2021/10/10 10:11:09;;;;;;;17.13;13.57;;;;;;;;;;5008857;28;20269;-73
2021/10/10 10:13:35;;;;;;;18.80;13.80;;;;;;;;;;5007575;28;20227;-73
2021/10/10 10:16:02;;;;;;;17.93;15.03;;;;;;;;;;5007299;28;20813;-73
2021/10/10 10:18:27;;;;;;;15.87;13.70;;;;;;;;;;5006384;28;20591;-73
2021/10/10 10:20:53;;;;;;;17.20;13.53;;;;;;;;;;5010446;28;20504;-73
2021/10/10 10:23:18;;;;;;;13.97;12.17;;;;;;;;;;5006928;28;20213;-72
2021/10/10 10:25:43;;;;;;;18.20;14.20;;;;;;;;;;5010571;28;20177;-75
2021/10/10 10:28:10;;;;;;;14.53;12.60;;;;;;;;;;5010000;28;20185;-72
2021/10/10 10:30:36;;;;;;;15.50;13.57;;;;;;;;;;5010577;28;20216;-72
2021/10/10 10:33:16;;;;;;;15.93;12.97;;;;;;;;;;5035272;28;20640;-75
2021/10/10 10:35:43;;;;;;;17.30;12.93;;;;;;;;;;5036110;28;20450;-75
2021/10/10 10:38:09;;;;;;;18.60;14.27;;;;;;;;;;5036758;28;20293;-75
2021/10/10 10:40:35;;;;;;;21.90;17.33;;;;;;;;;;5035941;28;21053;-75
2021/10/10 10:43:02;;;;;;;19.33;13.10;;;;;;;;;;5037209;28;20223;-75
2021/10/10 10:45:29;;;;;;;17.27;13.00;;;;;;;;;;5034924;28;20440;-75
2021/10/10 10:47:55;;;;;;;19.50;13.33;;;;;;;;;;5036704;28;20423;-75
2021/10/10 10:50:24;;;;;;;17.43;14.90;;;;;;;;;;5038397;28;20438;-75
2021/10/10 10:52:56;;;;;;;19.47;14.30;;;;;;;;;;5038236;28;20453;-75
2021/10/10 10:55:32;;;;;;;17.73;14.67;;;;;;;;;;5036285;28;20411;-74
2021/10/10 10:57:59;;;;;;;19.50;14.20;;;;;;;;;;5037305;28;20450;-73
2021/10/10 11:00:28;;;;;;;17.50;14.33;;;;;;;;;;5037646;28;20406;-73
2021/10/10 11:02:54;;;;;;;19.00;13.97;;;;;;;;;;5036505;28;20434;-73
2021/10/10 11:05:31;;;;;;;22.87;13.80;;;;;;;;;;5037754;28;20416;-75
2021/10/10 11:07:57;;;;;;;19.37;12.93;;;;;;;;;;5037484;28;20353;-73
2021/10/10 11:10:22;;;;;;;16.10;13.23;;;;;;;;;;5037341;28;20412;-73
2021/10/10 11:13:16;;;;;;;19.40;13.37;;;;;;;;;;5038344;28;20572;-73
2021/10/10 11:15:49;;;;;;;17.90;13.10;;;;;;;;;;5038023;28;20179;-74
2021/10/10 11:18:18;;;;;;;18.13;13.93;;;;;;;;;;5038178;28;20418;-73
2021/10/10 11:20:57;;;;;;;17.17;13.53;;;;;;;;;;5036682;28;20425;-73
2021/10/10 11:23:23;;;;;;;17.50;13.50;;;;;;;;;;5039019;28;20799;-73
2021/10/10 11:25:49;;;;;;;14.80;12.90;;;;;;;;;;5037623;28;20422;-73
2021/10/10 11:28:19;;;;;;;17.40;13.60;;;;;;;;;;5036922;28;21084;-73
2021/10/10 11:30:44;;;;;;;21.50;13.07;;;;;;;;;;5036813;28;20531;-73
2021/10/10 11:33:10;;;;;;;14.40;12.60;;;;;;;;;;5037308;28;20520;-73
2021/10/10 11:35:40;;;;;;;18.30;14.13;;;;;;;;;;5037484;28;20226;-73
2021/10/10 11:38:06;;;;;;;18.07;14.30;;;;;;;;;;5037854;28;20173;-73
2021/10/10 11:40:32;;;;;;;18.20;14.10;;;;;;;;;;5035776;28;20416;-73
2021/10/10 11:42:59;;;;;;;17.77;12.07;;;;;;;;;;5032776;28;20818;-73
2021/10/10 11:45:24;;;;;;;14.60;12.20;;;;;;;;;;5023714;28;20505;-73
2021/10/10 11:47:52;;;;;;;19.30;14.43;;;;;;;;;;5025385;28;20850;-73
2021/10/10 11:50:18;;;;;;;17.80;13.63;;;;;;;;;;5023674;28;20177;-73
2021/10/10 11:52:53;;;;;;;18.77;13.80;;;;;;;;;;5021174;28;20471;-74
2021/10/10 11:57:47;;;;;;;15.20;13.67;;;;;;;;;;5023269;28;20515;-74
2021/10/10 12:00:14;;;;;;;15.90;13.87;;;;;;;;;;5022743;28;20180;-74
2021/10/10 12:02:41;;;;;;;14.90;13.17;;;;;;;;;;5019889;28;20440;-74
2021/10/10 12:05:08;;;;;;;17.83;13.30;;;;;;;;;;5022979;28;20431;-74
2021/10/10 12:07:33;;;;;;;14.83;12.97;;;;;;;;;;5024409;28;20940;-75
2021/10/10 12:09:59;;;;;;;19.33;12.13;;;;;;;;;;5020626;28;20430;-73
2021/10/10 12:12:24;;;;;;;15.67;13.53;;;;;;;;;;5023675;28;20303;-73
2021/10/10 12:14:52;;;;;;;17.53;13.20;;;;;;;;;;5022736;28;20181;-73
2021/10/10 12:17:26;;;;;;;16.87;13.03;;;;;;;;;;5023603;28;20177;-74
2021/10/10 12:19:51;;;;;;;16.30;13.30;;;;;;;;;;5023191;28;20504;-74
2021/10/10 12:22:17;;;;;;;14.77;12.17;;;;;;;;;;5025892;28;20963;-73
2021/10/10 12:24:46;;;;;;;18.13;13.33;;;;;;;;;;5021342;28;20175;-74
2021/10/10 12:27:11;;;;;;;19.20;13.53;;;;;;;;;;5021805;28;20185;-73
2021/10/10 12:29:45;;;;;;;18.20;13.40;;;;;;;;;;5019367;28;20914;-77
2021/10/10 12:32:21;;;;;;;15.07;13.00;;;;;;;;;;5020162;28;20205;-76
2021/10/10 12:34:47;;;;;;;15.57;13.47;;;;;;;;;;5023883;28;20468;-76
2021/10/10 12:37:16;;;;;;;18.13;13.97;;;;;;;;;;5022991;28;20423;-76
2021/10/10 12:39:41;;;;;;;22.27;15.73;;;;;;;;;;5024081;28;20416;-76
2021/10/10 12:42:07;;;;;;;17.63;13.50;;;;;;;;;;5022785;28;20419;-77
2021/10/10 12:44:32;;;;;;;18.00;13.30;;;;;;;;;;5025392;28;20275;-78
2021/10/10 12:46:58;;;;;;;21.50;15.73;;;;;;;;;;5024819;28;20593;-77
2021/10/10 12:49:36;;;;;;;18.60;14.57;;;;;;;;;;5024832;28;20181;-78
2021/10/10 12:52:03;;;;;;;21.33;15.03;;;;;;;;;;5023145;28;20668;-74
2021/10/10 12:54:29;;;;;;;19.30;14.60;;;;;;;;;;5023183;28;20411;-74
2021/10/10 12:56:59;;;;;;;19.33;14.87;;;;;;;;;;5023597;28;20742;-75
2021/10/10 12:59:24;;;;;;;20.60;16.10;;;;;;;;;;5022385;28;20408;-74
2021/10/10 13:01:49;;;;;;;19.80;15.63;;;;;;;;;;5022167;28;20415;-75
2021/10/10 13:04:15;;;;;;;18.37;13.93;;;;;;;;;;5022066;28;20193;-76
2021/10/10 13:06:43;;;;;;;19.60;14.00;;;;;;;;;;5023172;28;20234;-76
2021/10/10 13:09:13;;;;;;;16.00;14.30;;;;;;;;;;5023327;28;20212;-76
2021/10/10 13:11:38;;;;;;;18.70;16.73;;;;;;;;;;5021520;28;20459;-75
2021/10/10 13:14:04;;;;;;;22.43;17.90;;;;;;;;;;5016380;28;20548;-76
2021/10/10 13:16:30;;;;;;;15.07;13.47;;;;;;;;;;5018145;28;20708;-75
2021/10/10 13:18:55;;;;;;;19.20;15.33;;;;;;;;;;5018387;28;20200;-75
2021/10/10 13:21:20;;;;;;;16.40;14.60;;;;;;;;;;5019926;28;20190;-75
2021/10/10 13:23:45;;;;;;;16.00;14.30;;;;;;;;;;5018866;28;20902;-76
2021/10/10 13:26:11;;;;;;;16.77;14.33;;;;;;;;;;5020038;28;20667;-76
2021/10/10 13:28:36;;;;;;;17.63;15.73;;;;;;;;;;5019220;28;20192;-76
2021/10/10 13:31:03;;;;;;;19.10;17.13;;;;;;;;;;5019533;28;20236;-75
2021/10/10 13:33:29;;;;;;;18.70;15.83;;;;;;;;;;5020435;28;20585;-75
2021/10/10 13:35:54;;;;;;;17.30;14.20;;;;;;;;;;5018421;28;20431;-76
2021/10/10 13:38:22;;;;;;;20.60;17.33;;;;;;;;;;5021872;28;20173;-76
2021/10/10 13:40:48;;;;;;;16.77;15.07;;;;;;;;;;5022542;28;20581;-77
2021/10/10 13:43:13;;;;;;;17.33;14.80;;;;;;;;;;5021691;28;20444;-75
2021/10/10 13:45:38;;;;;;;15.77;13.90;;;;;;;;;;5020208;28;20216;-77
2021/10/10 13:48:04;;;;;;;20.10;16.13;;;;;;;;;;5019296;28;20304;-77
2021/10/10 13:50:33;;;;;;;19.17;17.27;;;;;;;;;;5019570;28;20181;-77
2021/10/10 13:52:58;;;;;;;20.40;17.13;;;;;;;;;;5022314;28;20212;-77
2021/10/10 13:55:23;;;;;;;19.27;16.37;;;;;;;;;;5023120;28;20997;-77
2021/10/10 13:57:48;;;;;;;18.70;16.80;;;;;;;;;;5029189;28;20191;-78
2021/10/10 14:00:14;;;;;;;18.47;16.40;;;;;;;;;;5027114;28;20636;-78
2021/10/10 14:02:39;;;;;;;20.83;17.53;;;;;;;;;;5022334;28;20667;-78
2021/10/10 14:05:04;;;;;;;20.83;18.63;;;;;;;;;;5021517;28;20199;-79
2021/10/10 14:07:30;;;;;;;23.47;20.60;;;;;;;;;;5019319;28;20195;-76
2021/10/10 14:09:55;;;;;;;22.77;20.17;;;;;;;;;;5014104;28;20552;-77
2021/10/10 14:12:20;;;;;;;23.00;19.97;;;;;;;;;;5022075;28;20207;-77
2021/10/10 14:14:46;;;;;;;25.43;21.20;;;;;;;;;;5015970;28;20179;-79
2021/10/10 14:17:11;;;;;;;27.57;21.07;;;;;;;;;;5018581;28;20231;-76
2021/10/10 14:19:36;;;;;;;25.03;21.13;;;;;;;;;;5018978;28;20556;-78
2021/10/10 14:22:02;;;;;;;27.00;21.57;;;;;;;;;;5016826;28;20529;-76
2021/10/10 14:24:27;;;;;;;31.03;22.73;;;;;;;;;;5015615;28;20230;-77
2021/10/10 14:26:52;;;;;;;27.17;22.50;;;;;;;;;;5016700;28;20177;-77
2021/10/10 14:29:17;;;;;;;31.50;24.60;;;;;;;;;;5016006;28;20270;-76
2021/10/10 14:31:43;;;;;;;35.27;22.97;;;;;;;;;;5015775;28;20204;-76
2021/10/10 14:34:08;;;;;;;31.17;24.40;;;;;;;;;;5018207;28;20279;-77
2021/10/10 14:36:33;;;;;;;33.43;25.40;;;;;;;;;;5016235;28;20183;-76